Time;durP1;ratioP1;P1;durP2;ratioP2;P2;SDS_P1;SDS_P2;PMS_P1;PMS_P2;Temp;Humidity;BMP_temperature;BMP_pressure;BME280_temperature;BME280_humidity;BME280_pressure;Samples;Min_cycle;Max_cycle;Signal;HPM_P1;HPM_P2
2022/03/30 00:00:53;;;;;;;22.27;12.93;;;11.80;64.90;;;;;;4914863;29;20052;-87
2022/03/30 00:03:19;;;;;;;20.13;12.35;;;11.80;65.00;;;;;;4912373;29;20032;-87
2022/03/30 00:05:44;;;;;;;21.67;13.35;;;11.80;64.90;;;;;;4918085;29;20028;-87
2022/03/30 00:08:10;;;;;;;23.88;13.10;;;11.80;65.10;;;;;;4915739;29;20028;-87
2022/03/30 00:10:36;;;;;;;19.52;12.75;;;11.80;65.30;;;;;;4912302;29;20118;-88
2022/03/30 00:13:02;;;;;;;23.77;13.07;;;11.90;65.30;;;;;;4914708;29;20054;-87
2022/03/30 00:15:29;;;;;;;28.15;12.73;;;11.90;65.20;;;;;;4912964;29;20043;-87
2022/03/30 00:17:55;;;;;;;22.42;13.45;;;11.90;65.30;;;;;;4916383;29;20028;-88
2022/03/30 00:20:21;;;;;;;19.00;12.52;;;11.90;65.40;;;;;;4904122;29;20033;-87
2022/03/30 00:22:47;;;;;;;21.38;12.70;;;11.90;65.40;;;;;;4905477;29;20028;-88
2022/03/30 00:25:14;;;;;;;19.25;12.90;;;11.80;65.40;;;;;;4903907;29;20571;-88
2022/03/30 00:27:46;;;;;;;23.45;13.15;;;11.80;65.70;;;;;;4912731;29;20346;-85
2022/03/30 00:30:16;;;;;;;18.83;12.52;;;11.80;65.80;;;;;;4914361;29;20106;-87
2022/03/30 00:32:42;;;;;;;19.45;12.52;;;11.90;66.60;;;;;;4912738;29;20405;-86
2022/03/30 00:35:08;;;;;;;18.80;12.18;;;11.90;66.00;;;;;;4909145;29;20036;-87
2022/03/30 00:37:34;;;;;;;17.17;12.35;;;11.90;66.30;;;;;;4913500;29;20024;-87
2022/03/30 00:40:00;;;;;;;18.73;12.48;;;12.00;66.40;;;;;;4907194;29;20076;-87
2022/03/30 00:42:26;;;;;;;19.77;11.73;;;12.00;66.50;;;;;;4911889;29;20091;-87
2022/03/30 00:44:53;;;;;;;22.85;12.85;;;12.10;66.70;;;;;;4914392;29;20023;-87
2022/03/30 00:47:21;;;;;;;23.00;12.10;;;12.10;66.70;;;;;;4914055;29;20047;-87
2022/03/30 00:49:48;;;;;;;21.60;12.55;;;12.10;66.50;;;;;;4910382;29;20031;-88
2022/03/30 00:52:14;;;;;;;23.20;13.10;;;12.10;66.40;;;;;;4912508;29;20055;-87
2022/03/30 00:54:42;;;;;;;20.75;12.63;;;12.10;66.30;;;;;;4915596;29;20032;-87
2022/03/30 00:57:10;;;;;;;19.20;12.02;;;12.10;66.50;;;;;;4915254;29;20028;-87
2022/03/30 00:59:36;;;;;;;23.45;12.15;;;12.00;66.50;;;;;;4914685;29;20032;-87
2022/03/30 01:02:03;;;;;;;22.10;12.57;;;12.00;66.60;;;;;;4907109;29;20070;-87
2022/03/30 01:04:31;;;;;;;18.75;12.32;;;11.90;66.80;;;;;;4913682;29;20040;-87
2022/03/30 01:06:57;;;;;;;20.77;12.88;;;12.00;67.20;;;;;;4912247;29;20030;-87
2022/03/30 01:09:24;;;;;;;23.15;12.80;;;12.00;67.30;;;;;;4905289;29;20127;-87
2022/03/30 01:11:51;;;;;;;19.40;11.95;;;12.00;67.20;;;;;;4917030;29;20038;-88
2022/03/30 01:14:18;;;;;;;24.17;13.23;;;12.00;67.50;;;;;;4906146;29;20024;-88
2022/03/30 01:16:44;;;;;;;22.95;13.32;;;12.00;67.70;;;;;;4900639;29;20072;-88
2022/03/30 01:19:11;;;;;;;24.33;12.57;;;12.00;67.70;;;;;;4910680;29;20059;-87
2022/03/30 01:21:39;;;;;;;23.08;13.27;;;12.00;67.90;;;;;;4915110;29;20012;-86
2022/03/30 01:24:06;;;;;;;19.23;12.07;;;12.00;68.00;;;;;;4934315;29;20032;-87
2022/03/30 01:26:32;;;;;;;22.75;13.50;;;12.00;68.00;;;;;;4933916;29;20032;-86
2022/03/30 01:28:58;;;;;;;21.85;13.13;;;12.10;68.00;;;;;;4932224;29;20028;-87
2022/03/30 01:34:09;;;;;;;24.63;12.88;;;11.90;67.70;;;;;;4910306;29;20104;-87
2022/03/30 01:36:35;;;;;;;22.70;13.18;;;11.80;67.50;;;;;;4901375;29;20032;-88
2022/03/30 01:39:03;;;;;;;22.38;12.50;;;11.80;68.00;;;;;;4899080;29;20072;-88
2022/03/30 01:41:29;;;;;;;22.40;12.43;;;11.70;67.90;;;;;;4903416;29;20523;-87
2022/03/30 01:43:56;;;;;;;19.05;12.00;;;11.60;67.80;;;;;;4905276;29;20029;-87
2022/03/30 01:46:22;;;;;;;22.27;13.30;;;11.50;67.90;;;;;;4911322;29;20492;-87
2022/03/30 01:48:48;;;;;;;27.67;12.95;;;11.50;67.90;;;;;;4916191;29;20047;-86
2022/03/30 01:51:13;;;;;;;19.80;12.63;;;11.40;68.60;;;;;;4910537;29;20474;-87
2022/03/30 01:53:39;;;;;;;22.45;13.32;;;11.30;68.30;;;;;;4929998;29;20545;-88
2022/03/30 01:56:04;;;;;;;24.33;12.52;;;11.30;68.60;;;;;;4930335;29;20040;-87
2022/03/30 01:58:30;;;;;;;23.58;14.02;;;11.30;68.70;;;;;;4907623;29;20505;-88
2022/03/30 02:00:57;;;;;;;21.65;13.02;;;11.30;68.80;;;;;;4905422;29;20040;-87
2022/03/30 02:03:23;;;;;;;21.02;13.10;;;11.20;68.80;;;;;;4911696;29;20489;-88
2022/03/30 02:05:49;;;;;;;23.85;12.98;;;11.20;69.10;;;;;;4909681;29;20038;-87
2022/03/30 02:08:15;;;;;;;19.58;12.68;;;11.20;69.30;;;;;;4905334;29;20452;-87
2022/03/30 02:10:41;;;;;;;22.33;13.35;;;11.20;69.60;;;;;;4908887;29;20025;-87
2022/03/30 02:13:06;;;;;;;25.92;14.48;;;11.30;69.80;;;;;;4904918;29;20031;-87
2022/03/30 02:15:32;;;;;;;26.88;15.35;;;11.30;69.70;;;;;;4911799;29;20031;-86
2022/03/30 02:17:59;;;;;;;24.38;14.73;;;11.40;69.70;;;;;;4914508;29;20047;-87
2022/03/30 02:20:25;;;;;;;26.20;14.73;;;11.30;69.70;;;;;;4908018;29;20040;-86
2022/03/30 02:22:50;;;;;;;19.98;13.73;;;11.30;70.00;;;;;;4913516;29;20058;-86
2022/03/30 02:25:16;;;;;;;21.98;14.27;;;11.30;70.20;;;;;;4906907;29;20510;-87
2022/03/30 02:27:41;;;;;;;23.63;14.20;;;11.30;70.40;;;;;;4912147;29;20051;-88
2022/03/30 02:30:08;;;;;;;23.63;14.25;;;11.30;70.40;;;;;;4904765;29;20162;-88
2022/03/30 02:32:36;;;;;;;27.85;14.15;;;11.30;70.40;;;;;;4905745;29;20036;-88
2022/03/30 02:35:05;;;;;;;22.42;14.32;;;11.30;70.40;;;;;;4925999;29;20111;-87
2022/03/30 02:37:30;;;;;;;22.42;14.43;;;11.20;70.50;;;;;;4910815;29;20608;-87
2022/03/30 02:39:56;;;;;;;25.23;14.77;;;11.20;70.70;;;;;;4914281;29;20051;-87
2022/03/30 02:42:21;;;;;;;23.08;14.05;;;11.20;70.80;;;;;;4911546;29;20104;-87
2022/03/30 02:44:47;;;;;;;25.10;15.20;;;11.20;70.90;;;;;;4911243;29;20024;-87
2022/03/30 02:47:13;;;;;;;24.65;14.43;;;11.20;70.90;;;;;;4915625;29;20038;-88
2022/03/30 02:49:41;;;;;;;30.85;15.38;;;11.20;71.00;;;;;;4970974;23;20066;-85
2022/03/30 02:52:07;;;;;;;24.27;14.93;;;11.20;71.10;;;;;;4954705;29;20019;-86
2022/03/30 02:54:33;;;;;;;24.75;14.95;;;11.20;71.20;;;;;;4950414;29;20062;-87
2022/03/30 02:56:59;;;;;;;26.98;15.23;;;11.10;71.80;;;;;;4951542;28;20074;-86
2022/03/30 02:59:25;;;;;;;20.70;13.57;;;11.10;71.60;;;;;;4957608;28;20035;-85
2022/03/30 03:01:54;;;;;;;23.58;13.73;;;11.10;71.80;;;;;;4962006;29;20038;-87
2022/03/30 03:04:21;;;;;;;20.73;13.25;;;11.00;71.90;;;;;;4958808;29;20035;-87
2022/03/30 03:06:46;;;;;;;22.40;14.15;;;11.00;72.30;;;;;;4953696;29;20027;-86
2022/03/30 03:09:22;;;;;;;24.00;14.50;;;11.00;72.60;;;;;;4962233;28;20508;-86
2022/03/30 03:11:51;;;;;;;23.58;14.05;;;11.00;72.90;;;;;;4960156;29;20490;-87
2022/03/30 03:14:19;;;;;;;22.90;13.50;;;10.90;73.00;;;;;;4952657;29;20052;-87
2022/03/30 03:16:54;;;;;;;26.30;13.98;;;11.00;73.60;;;;;;4955408;29;20043;-87
2022/03/30 03:19:34;;;;;;;23.23;14.80;;;11.00;73.90;;;;;;4962853;28;20011;-86
2022/03/30 03:21:59;;;;;;;21.60;14.00;;;10.90;73.80;;;;;;4974637;28;20320;-88
2022/03/30 03:24:27;;;;;;;21.83;13.95;;;10.90;73.50;;;;;;4960382;29;20086;-87
2022/03/30 03:26:54;;;;;;;22.05;14.05;;;10.90;73.80;;;;;;4964635;29;20031;-85
2022/03/30 03:29:23;;;;;;;23.88;14.20;;;10.80;74.20;;;;;;4975780;28;20063;-85
2022/03/30 03:31:49;;;;;;;22.63;13.52;;;10.90;74.80;;;;;;4979351;28;20011;-86
2022/03/30 03:34:19;;;;;;;22.00;14.13;;;11.00;74.90;;;;;;4975627;28;20051;-84
2022/03/30 03:36:45;;;;;;;22.80;15.15;;;11.10;75.00;;;;;;4969759;28;20035;-87
2022/03/30 03:39:11;;;;;;;24.17;14.43;;;11.10;75.00;;;;;;4962976;28;20023;-85
2022/03/30 03:41:36;;;;;;;24.98;13.77;;;11.00;74.90;;;;;;4962000;29;20026;-85
2022/03/30 03:44:03;;;;;;;22.38;14.43;;;11.00;75.20;;;;;;4951881;29;20039;-85
2022/03/30 03:46:29;;;;;;;26.88;14.48;;;11.00;75.30;;;;;;4955745;29;20016;-85
2022/03/30 03:48:57;;;;;;;19.92;13.75;;;11.00;75.60;;;;;;4962586;29;20023;-88
2022/03/30 03:51:26;;;;;;;27.35;14.90;;;10.90;76.00;;;;;;4957946;29;20054;-85
2022/03/30 03:53:54;;;;;;;23.27;15.27;;;11.00;76.40;;;;;;4960782;29;20110;-86
2022/03/30 03:56:48;;;;;;;;;;;;;;;;;;;;;
2022/03/30 03:59:22;;;;;;;25.98;14.65;;;11.00;77.20;;;;;;4961074;29;20461;-86
2022/03/30 04:01:53;;;;;;;25.25;15.23;;;11.10;77.00;;;;;;4944937;29;20043;-88
2022/03/30 04:04:29;;;;;;;26.27;15.20;;;11.20;77.30;;;;;;4963260;29;20032;-85
2022/03/30 04:07:16;;;;;;;23.02;15.20;;;11.10;77.60;;;;;;4962875;29;20393;-87
2022/03/30 04:10:04;;;;;;;24.42;15.27;;;11.10;78.00;;;;;;4963242;28;20042;-88
2022/03/30 04:12:48;;;;;;;28.92;15.75;;;11.20;78.20;;;;;;4947086;29;20027;-88
2022/03/30 04:15:30;;;;;;;25.88;15.68;;;11.10;78.30;;;;;;4955898;29;20027;-90
2022/03/30 04:18:04;;;;;;;24.30;14.70;;;11.20;78.40;;;;;;4961372;29;20051;-86
2022/03/30 04:20:32;;;;;;;21.20;13.80;;;11.10;78.10;;;;;;4961419;29;20028;-86
2022/03/30 04:23:05;;;;;;;26.67;15.40;;;11.10;78.50;;;;;;4955443;29;20032;-86
2022/03/30 04:25:36;;;;;;;25.10;15.65;;;11.00;78.90;;;;;;4964967;29;20020;-87
2022/03/30 04:28:15;;;;;;;24.73;16.42;;;11.00;79.30;;;;;;4989966;28;20062;-86
2022/03/30 04:30:57;;;;;;;24.00;15.57;;;10.80;79.80;;;;;;4965651;29;20117;-87
2022/03/30 04:33:25;;;;;;;26.88;16.38;;;10.70;80.10;;;;;;4958618;29;20038;-86
2022/03/30 04:35:55;;;;;;;26.08;16.00;;;10.70;80.40;;;;;;4956291;29;20027;-86
2022/03/30 04:38:29;;;;;;;31.42;17.33;;;10.70;81.30;;;;;;4970832;29;20063;-86
2022/03/30 04:41:14;;;;;;;30.02;16.60;;;10.70;82.00;;;;;;4966641;29;20028;-87
2022/03/30 04:43:42;;;;;;;28.00;16.23;;;10.80;82.30;;;;;;4971861;29;20021;-86
2022/03/30 04:46:50;;;;;;;;;;;;;;;;;;;;;
2022/03/30 04:49:18;;;;;;;25.20;15.40;;;10.80;82.30;;;;;;4961420;28;20047;-86
2022/03/30 04:51:44;;;;;;;30.15;17.50;;;10.80;82.60;;;;;;4965340;29;20094;-85
2022/03/30 04:54:18;;;;;;;24.83;16.95;;;10.80;83.00;;;;;;4959465;29;20042;-86
2022/03/30 04:56:56;;;;;;;29.25;17.23;;;10.80;83.60;;;;;;4957441;28;20028;-87
2022/03/30 04:59:30;;;;;;;30.58;17.13;;;10.80;84.00;;;;;;4940360;29;20053;-87
2022/03/30 05:02:25;;;;;;;26.55;16.05;;;10.90;84.80;;;;;;4952953;29;20047;-86
2022/03/30 05:05:42;;;;;;;33.55;17.05;;;10.80;85.20;;;;;;4958802;29;20050;-87
2022/03/30 05:08:08;;;;;;;29.10;17.90;;;11.00;85.00;;;;;;4966516;29;20035;-86
2022/03/30 05:10:46;;;;;;;30.85;17.92;;;11.10;84.90;;;;;;4966772;28;20031;-86
2022/03/30 05:13:16;;;;;;;25.80;17.75;;;11.00;85.90;;;;;;4960575;29;20023;-86
2022/03/30 05:15:42;;;;;;;29.98;18.83;;;10.90;86.00;;;;;;4965141;29;20106;-87
2022/03/30 05:18:08;;;;;;;29.23;18.23;;;11.00;86.70;;;;;;4961594;29;20036;-85
2022/03/30 05:20:53;;;;;;;;;;;;;;;;;;;;;
2022/03/30 05:23:19;;;;;;;28.23;18.15;;;11.00;87.50;;;;;;4964844;29;20122;-86
2022/03/30 05:28:44;;;;;;;30.35;19.55;;;11.00;88.90;;;;;;4958205;28;20113;-87
2022/03/30 05:31:10;;;;;;;32.90;20.10;;;11.00;89.00;;;;;;4963398;28;20724;-87
2022/03/30 05:33:37;;;;;;;29.35;19.20;;;11.00;89.60;;;;;;4957867;29;20027;-89
2022/03/30 05:36:29;;;;;;;32.53;18.63;;;11.00;90.10;;;;;;4958199;29;20091;-87
2022/03/30 05:42:26;;;;;;;32.90;20.42;;;11.10;90.60;;;;;;4941752;28;20035;-88
2022/03/30 05:45:44;;;;;;;38.95;21.88;;;11.00;90.60;;;;;;4958630;28;20474;-87
2022/03/30 05:48:55;;;;;;;36.58;19.95;;;11.10;90.60;;;;;;4940011;28;20043;-87
2022/03/30 05:51:28;;;;;;;32.72;19.75;;;11.10;90.40;;;;;;4909435;29;20071;-88
2022/03/30 05:54:22;;;;;;;;;;;11.00;90.80;;;;;;4957177;29;20038;-87
2022/03/30 05:57:26;;;;;;;32.50;20.02;;;10.90;89.50;;;;;;4937300;29;19962;-88
2022/03/30 06:00:06;;;;;;;;;;;;;;;;;;;;;
2022/03/30 06:03:22;;;;;;;;;;;;;;;;;;;;;
2022/03/30 06:06:04;;;;;;;35.88;20.58;;;10.30;91.50;;;;;;4928966;29;20106;-87
2022/03/30 06:08:58;;;;;;;;;;;;;;;;;;;;;
2022/03/30 06:11:24;;;;;;;37.53;21.05;;;10.00;93.00;;;;;;4956664;29;20552;-88
2022/03/30 06:13:50;;;;;;;39.42;22.85;;;9.90;93.10;;;;;;4961838;29;20078;-89
2022/03/30 06:16:16;;;;;;;35.60;21.92;;;9.80;93.70;;;;;;4961080;29;20102;-87
2022/03/30 06:18:52;;;;;;;36.20;22.42;;;9.80;94.10;;;;;;4963116;29;20393;-87
2022/03/30 06:21:29;;;;;;;34.83;21.48;;;9.70;94.60;;;;;;4962740;28;20062;-87
2022/03/30 06:24:01;;;;;;;37.70;22.02;;;9.70;94.90;;;;;;4953203;29;20027;-87
2022/03/30 06:29:25;;;;;;;36.17;22.15;;;9.80;95.10;;;;;;4957761;29;20505;-87
2022/03/30 06:32:24;;;;;;;;;;;;;;;;;;;;;
2022/03/30 06:34:50;;;;;;;34.40;20.73;;;9.90;95.50;;;;;;4961113;29;20507;-88
2022/03/30 06:37:43;;;;;;;37.95;21.83;;;9.80;95.50;;;;;;4960984;29;20058;-89
2022/03/30 06:40:22;;;;;;;38.00;22.15;;;9.70;95.80;;;;;;4960796;28;20059;-88
2022/03/30 06:42:48;;;;;;;39.20;22.70;;;9.60;96.30;;;;;;4971699;29;20054;-88
2022/03/30 06:48:28;;;;;;;38.60;23.73;;;9.50;97.00;;;;;;4939906;29;20494;-85
2022/03/30 06:50:54;;;;;;;41.03;23.30;;;9.60;97.20;;;;;;4956441;29;20035;-86
2022/03/30 06:53:26;;;;;;;39.67;23.23;;;9.50;97.40;;;;;;4959820;29;20069;-87
2022/03/30 06:55:52;;;;;;;39.92;24.42;;;9.60;97.80;;;;;;4972468;28;20027;-88
2022/03/30 06:58:22;;;;;;;45.58;25.38;;;9.60;97.90;;;;;;4952128;28;20062;-87
2022/03/30 07:00:48;;;;;;;42.83;25.15;;;9.60;98.30;;;;;;4955752;28;20027;-90
2022/03/30 07:03:14;;;;;;;42.08;24.38;;;9.60;98.50;;;;;;4957108;28;20063;-87
2022/03/30 07:05:40;;;;;;;43.35;24.45;;;9.50;98.70;;;;;;4950851;29;20039;-90
2022/03/30 07:10:55;;;;;;;40.83;23.75;;;9.60;99.50;;;;;;4948360;29;20030;-88
2022/03/30 07:13:31;;;;;;;44.20;25.80;;;9.60;99.40;;;;;;4954088;29;20024;-89
2022/03/30 07:16:11;;;;;;;44.78;25.13;;;9.60;99.80;;;;;;4943975;29;20486;-88
2022/03/30 07:18:37;;;;;;;50.05;25.92;;;9.50;99.90;;;;;;4939280;29;20187;-88
2022/03/30 07:21:05;;;;;;;46.47;26.60;;;9.60;99.80;;;;;;4940307;29;20465;-89
2022/03/30 07:23:36;;;;;;;48.28;26.73;;;9.60;99.90;;;;;;4939928;29;20024;-89
2022/03/30 07:26:37;;;;;;;45.95;26.92;;;9.60;99.90;;;;;;4955823;29;20114;-89
2022/03/30 07:29:06;;;;;;;52.53;27.08;;;9.60;99.90;;;;;;4969985;29;20024;-88
2022/03/30 07:31:34;;;;;;;49.72;27.80;;;9.70;99.90;;;;;;4957682;28;20019;-89
2022/03/30 07:37:47;;;;;;;51.15;26.83;;;9.80;99.90;;;;;;4963921;29;20022;-88
2022/03/30 07:40:27;;;;;;;45.47;27.80;;;9.80;99.90;;;;;;4959457;29;20393;-89
2022/03/30 07:43:09;;;;;;;51.05;27.75;;;9.80;99.90;;;;;;4958727;29;20046;-90
2022/03/30 07:45:46;;;;;;;48.92;27.50;;;9.80;99.90;;;;;;4959066;29;20027;-88
2022/03/30 07:48:46;;;;;;;50.00;26.83;;;9.80;99.90;;;;;;4959184;29;20035;-88
2022/03/30 07:51:43;;;;;;;49.17;27.52;;;9.80;99.90;;;;;;4945325;28;20471;-89
2022/03/30 07:54:47;;;;;;;;;;;;;;;;;;;;;
2022/03/30 07:57:23;;;;;;;46.58;26.40;;;9.90;99.90;;;;;;4948464;29;20111;-88
2022/03/30 08:00:03;;;;;;;49.75;26.25;;;9.90;99.90;;;;;;4938743;29;20028;-89
2022/03/30 08:02:49;;;;;;;47.25;25.88;;;10.00;99.90;;;;;;4939653;29;20032;-89
2022/03/30 08:05:25;;;;;;;44.88;25.80;;;10.00;99.90;;;;;;4954555;29;20031;-88
2022/03/30 08:07:56;;;;;;;51.45;26.95;;;10.10;99.90;;;;;;4958719;29;20011;-89
2022/03/30 08:10:28;;;;;;;53.20;28.38;;;10.10;99.90;;;;;;4958213;29;20015;-90
2022/03/30 08:13:25;;;;;;;47.87;26.27;;;10.10;99.90;;;;;;4964513;29;20030;-89
2022/03/30 08:15:56;;;;;;;47.97;25.20;;;10.10;99.90;;;;;;4955644;29;20495;-89
2022/03/30 08:18:27;;;;;;;47.90;25.73;;;10.20;99.90;;;;;;4957955;29;20079;-90
2022/03/30 08:23:48;;;;;;;47.35;25.50;;;10.20;99.90;;;;;;4957041;29;20110;-89
2022/03/30 08:26:23;;;;;;;48.13;27.00;;;10.40;99.90;;;;;;4956342;29;20023;-89
2022/03/30 08:28:49;;;;;;;49.53;25.70;;;10.30;99.90;;;;;;4956789;29;20031;-89
2022/03/30 08:31:15;;;;;;;43.55;26.27;;;10.50;99.90;;;;;;4955924;28;20038;-89
2022/03/30 08:33:46;;;;;;;43.05;25.65;;;10.40;99.90;;;;;;4955980;29;20035;-89
2022/03/30 08:36:16;;;;;;;48.42;26.88;;;10.30;99.90;;;;;;4955614;29;20495;-88
2022/03/30 08:38:45;;;;;;;48.60;26.83;;;10.30;99.90;;;;;;4955916;29;20035;-89
2022/03/30 08:41:13;;;;;;;47.28;26.77;;;10.50;99.90;;;;;;4953350;28;20047;-89
2022/03/30 08:44:00;;;;;;;45.97;26.30;;;10.50;99.90;;;;;;4937198;29;20031;-89
2022/03/30 08:46:31;;;;;;;53.67;27.65;;;10.50;99.90;;;;;;4937191;29;20031;-87
2022/03/30 08:49:02;;;;;;;44.97;25.70;;;10.50;99.90;;;;;;4957615;29;20027;-88
2022/03/30 08:51:31;;;;;;;48.17;26.73;;;10.60;99.90;;;;;;4951912;29;20082;-89
2022/03/30 08:53:56;;;;;;;47.33;27.55;;;10.60;99.90;;;;;;4956963;29;20386;-89
2022/03/30 08:56:25;;;;;;;46.72;25.35;;;10.60;99.90;;;;;;4956906;29;20023;-89
2022/03/30 08:59:34;;;;;;;47.53;25.55;;;10.60;99.90;;;;;;4946349;29;20027;-89
2022/03/30 09:01:59;;;;;;;45.63;26.45;;;10.60;99.90;;;;;;4950937;29;20403;-89
2022/03/30 09:04:28;;;;;;;49.33;27.95;;;10.60;99.90;;;;;;4956604;29;20051;-87
2022/03/30 09:07:01;;;;;;;45.53;25.75;;;10.60;99.90;;;;;;4958348;29;20051;-89
2022/03/30 09:09:45;;;;;;;44.90;26.35;;;10.50;99.90;;;;;;4956044;28;20015;-89
2022/03/30 09:12:15;;;;;;;45.30;26.23;;;10.60;99.90;;;;;;4956853;29;20027;-88
2022/03/30 09:15:28;;;;;;;48.50;26.35;;;10.60;99.90;;;;;;4956675;29;20066;-89
2022/03/30 09:18:03;;;;;;;43.67;25.85;;;10.70;99.90;;;;;;4935144;29;20039;-89
2022/03/30 09:20:29;;;;;;;44.17;25.98;;;10.80;99.90;;;;;;4937369;29;20036;-88
2022/03/30 09:23:00;;;;;;;46.10;26.50;;;10.90;99.90;;;;;;4946148;29;20063;-88
2022/03/30 09:25:30;;;;;;;44.83;25.92;;;11.00;99.90;;;;;;4956332;29;20453;-89
2022/03/30 09:27:59;;;;;;;45.55;26.15;;;10.90;99.90;;;;;;4956367;29;20027;-89
2022/03/30 09:30:26;;;;;;;39.55;25.48;;;11.00;99.90;;;;;;4955639;28;20027;-89
2022/03/30 09:32:56;;;;;;;43.53;25.90;;;11.00;99.90;;;;;;4956496;29;20205;-88
2022/03/30 09:35:30;;;;;;;41.42;25.00;;;11.10;99.90;;;;;;4955936;29;20027;-89
2022/03/30 09:38:09;;;;;;;53.95;30.63;;;11.00;99.90;;;;;;4956290;29;20103;-89
2022/03/30 09:40:42;;;;;;;45.88;25.92;;;11.10;99.90;;;;;;4955953;29;20122;-89
2022/03/30 09:43:23;;;;;;;45.72;26.23;;;11.20;99.90;;;;;;4955367;28;20031;-89
2022/03/30 09:46:02;;;;;;;48.45;26.58;;;11.20;99.90;;;;;;4947244;29;20076;-90
2022/03/30 09:48:40;;;;;;;44.65;24.10;;;11.30;99.90;;;;;;4950688;29;20089;-89
2022/03/30 09:51:14;;;;;;;42.80;24.20;;;11.30;99.90;;;;;;4956335;28;20030;-90
2022/03/30 09:53:42;;;;;;;41.90;23.88;;;11.20;99.90;;;;;;4955339;29;20114;-90
2022/03/30 09:56:32;;;;;;;45.90;24.73;;;11.10;99.90;;;;;;4954474;29;20106;-89
2022/03/30 09:59:00;;;;;;;48.25;25.58;;;11.10;99.90;;;;;;4955583;29;20042;-89
2022/03/30 10:01:29;;;;;;;41.60;25.63;;;11.00;99.90;;;;;;4956136;28;20061;-88
2022/03/30 10:03:56;;;;;;;48.85;26.05;;;11.10;99.90;;;;;;4954753;29;20031;-90
2022/03/30 10:06:33;;;;;;;42.03;24.08;;;11.10;99.90;;;;;;4955931;28;20595;-89
2022/03/30 10:08:59;;;;;;;44.80;24.50;;;11.00;99.90;;;;;;4938187;29;20028;-89
2022/03/30 10:11:27;;;;;;;40.00;22.80;;;11.00;99.90;;;;;;4935615;29;20071;-90
2022/03/30 10:14:01;;;;;;;40.85;23.70;;;11.00;99.90;;;;;;4935704;29;20059;-89
2022/03/30 10:16:27;;;;;;;40.90;24.67;;;10.90;99.90;;;;;;4941487;29;20433;-89
2022/03/30 10:19:08;;;;;;;44.85;24.10;;;11.00;99.90;;;;;;4942105;29;20024;-90
2022/03/30 10:22:09;;;;;;;44.70;24.48;;;11.10;99.90;;;;;;4953739;29;20122;-92
2022/03/30 10:24:59;;;;;;;42.13;24.27;;;11.20;99.90;;;;;;4954718;29;20027;-92
2022/03/30 10:28:18;;;;;;;41.33;22.55;;;11.20;99.90;;;;;;4959204;29;20054;-89
2022/03/30 10:30:44;;;;;;;37.30;22.77;;;11.20;99.90;;;;;;4914747;29;20024;-89
2022/03/30 10:33:12;;;;;;;43.78;22.50;;;11.20;99.90;;;;;;4953912;29;20098;-91
2022/03/30 10:35:42;;;;;;;45.80;24.23;;;11.20;99.90;;;;;;4963092;29;20027;-89
2022/03/30 10:38:09;;;;;;;38.00;21.92;;;11.10;99.90;;;;;;4956365;29;20496;-88
2022/03/30 10:40:35;;;;;;;39.38;20.35;;;11.10;99.90;;;;;;4954343;28;20039;-87
2022/03/30 10:43:26;;;;;;;40.60;21.02;;;11.20;99.90;;;;;;4951926;29;20042;-87
2022/03/30 10:46:01;;;;;;;33.88;18.73;;;11.20;99.90;;;;;;4957657;28;20027;-87
2022/03/30 10:48:29;;;;;;;42.75;20.10;;;11.20;99.90;;;;;;4953953;29;20422;-85
2022/03/30 10:51:13;;;;;;;44.00;20.85;;;11.20;99.90;;;;;;4951744;28;20028;-87
2022/03/30 10:53:48;;;;;;;34.92;18.30;;;11.10;99.90;;;;;;4951152;28;20362;-86
2022/03/30 10:56:18;;;;;;;35.10;17.35;;;11.10;99.90;;;;;;4960509;29;20038;-87
2022/03/30 10:58:49;;;;;;;34.10;17.67;;;11.10;99.90;;;;;;4963602;29;20034;-87
2022/03/30 11:01:26;;;;;;;34.63;18.92;;;11.10;99.90;;;;;;4963669;28;20125;-86
2022/03/30 11:03:58;;;;;;;40.25;17.83;;;11.10;99.90;;;;;;4962697;29;20118;-85
2022/03/30 11:06:26;;;;;;;35.13;16.55;;;11.10;99.90;;;;;;4956855;29;20129;-87
2022/03/30 11:08:52;;;;;;;34.75;16.85;;;11.20;99.90;;;;;;4961398;29;20100;-86
2022/03/30 11:11:25;;;;;;;55.22;34.65;;;11.20;99.90;;;;;;4956525;28;21538;-86
2022/03/30 11:14:26;;;;;;;29.27;15.10;;;11.20;99.90;;;;;;4958607;29;20103;-86
2022/03/30 11:16:55;;;;;;;29.77;17.10;;;11.30;99.90;;;;;;4955950;29;20510;-85
2022/03/30 11:19:28;;;;;;;31.23;18.98;;;11.40;99.90;;;;;;4957655;29;20063;-87
2022/03/30 11:22:01;;;;;;;32.13;14.77;;;11.40;99.90;;;;;;4956411;29;20023;-86
2022/03/30 11:24:30;;;;;;;31.35;13.50;;;11.50;99.90;;;;;;4949974;29;20099;-86
2022/03/30 11:26:59;;;;;;;38.08;17.25;;;11.50;99.90;;;;;;4959278;29;20019;-86
2022/03/30 11:29:44;;;;;;;24.65;12.95;;;11.50;99.90;;;;;;4959323;29;20031;-87
2022/03/30 11:32:22;;;;;;;29.58;13.00;;;11.60;99.90;;;;;;4960004;28;20211;-86
2022/03/30 11:34:52;;;;;;;30.17;13.27;;;11.60;99.90;;;;;;4956510;29;20118;-86
2022/03/30 11:37:19;;;;;;;31.52;12.82;;;11.70;99.90;;;;;;4953823;29;20087;-86
2022/03/30 11:39:49;;;;;;;22.17;11.70;;;11.70;99.90;;;;;;4957998;28;20046;-86
2022/03/30 11:42:16;;;;;;;25.83;11.80;;;11.70;99.90;;;;;;4959449;28;20019;-86
2022/03/30 11:47:32;;;;;;;27.58;11.13;;;11.90;99.90;;;;;;4958277;29;20034;-86
2022/03/30 11:49:59;;;;;;;27.52;12.30;;;11.80;99.90;;;;;;4956396;28;20475;-86
2022/03/30 11:52:25;;;;;;;25.40;12.60;;;11.90;99.90;;;;;;4944137;29;20027;-86
2022/03/30 11:54:53;;;;;;;32.88;12.13;;;12.00;99.90;;;;;;4960280;29;20069;-87
2022/03/30 11:57:20;;;;;;;24.15;11.93;;;12.00;99.90;;;;;;4956744;29;20027;-86
2022/03/30 11:59:57;;;;;;;26.15;11.80;;;12.10;99.90;;;;;;4951815;29;20079;-86
2022/03/30 12:02:25;;;;;;;21.48;10.80;;;12.00;99.90;;;;;;4946790;29;20023;-86
2022/03/30 12:04:52;;;;;;;21.25;11.38;;;12.00;99.90;;;;;;4957905;28;20569;-86
2022/03/30 12:07:20;;;;;;;25.17;10.95;;;11.90;99.90;;;;;;4958415;28;20019;-87
2022/03/30 12:09:46;;;;;;;22.23;11.32;;;11.90;99.90;;;;;;4955742;28;20024;-86
2022/03/30 12:12:12;;;;;;;24.20;11.30;;;12.00;99.90;;;;;;4955961;29;20049;-88
2022/03/30 12:14:41;;;;;;;19.83;10.48;;;11.90;99.90;;;;;;4956570;29;21815;-87
2022/03/30 12:17:07;;;;;;;23.83;11.55;;;11.90;99.90;;;;;;4952830;29;20043;-87
2022/03/30 12:19:33;;;;;;;26.27;11.50;;;11.80;99.90;;;;;;4950398;29;20210;-86
2022/03/30 12:22:06;;;;;;;25.08;11.55;;;11.80;99.90;;;;;;4954517;29;20036;-87
2022/03/30 12:24:33;;;;;;;27.48;11.13;;;11.90;99.90;;;;;;4955781;29;20028;-87
2022/03/30 12:26:59;;;;;;;20.02;10.85;;;11.80;99.90;;;;;;4956487;29;20389;-85
2022/03/30 12:29:31;;;;;;;21.20;10.65;;;11.70;99.90;;;;;;4957324;28;20027;-88
2022/03/30 12:31:57;;;;;;;22.38;10.73;;;11.60;99.90;;;;;;4956211;29;20189;-88
2022/03/30 12:34:23;;;;;;;21.40;10.00;;;11.60;99.90;;;;;;4955404;29;20027;-87
2022/03/30 12:36:58;;;;;;;23.33;10.18;;;11.70;99.90;;;;;;4955986;29;20031;-87
2022/03/30 12:39:43;;;;;;;19.90;9.68;;;11.60;99.90;;;;;;4955446;29;20045;-87
2022/03/30 12:42:17;;;;;;;20.73;10.57;;;11.40;99.90;;;;;;4955819;29;20035;-87
2022/03/30 12:44:50;;;;;;;19.85;10.52;;;11.40;99.90;;;;;;4955182;29;20030;-87
2022/03/30 12:47:29;;;;;;;22.92;10.93;;;11.30;99.90;;;;;;4955380;29;20019;-87
2022/03/30 12:49:57;;;;;;;30.55;12.05;;;11.30;99.90;;;;;;4951864;28;20027;-87
2022/03/30 12:52:34;;;;;;;25.73;12.07;;;11.30;99.90;;;;;;4952659;29;20095;-87
2022/03/30 12:55:24;;;;;;;22.73;12.13;;;11.30;99.90;;;;;;4946335;29;20043;-87
2022/03/30 12:57:59;;;;;;;21.98;12.00;;;11.20;99.90;;;;;;4955504;29;20031;-87
2022/03/30 13:00:46;;;;;;;28.30;12.50;;;11.20;99.90;;;;;;4955207;28;20043;-87
2022/03/30 13:03:16;;;;;;;27.85;12.05;;;11.20;99.90;;;;;;4954432;29;20489;-87
2022/03/30 13:05:48;;;;;;;23.50;12.70;;;11.20;99.90;;;;;;4939316;29;20083;-87
2022/03/30 13:08:16;;;;;;;26.50;12.93;;;11.20;99.90;;;;;;4936308;29;20020;-88
2022/03/30 13:11:17;;;;;;;24.17;13.32;;;11.10;99.90;;;;;;4951687;29;20106;-87
2022/03/30 13:13:48;;;;;;;64.40;23.70;;;11.10;99.90;;;;;;4936422;29;20036;-87
2022/03/30 13:16:19;;;;;;;50.23;24.10;;;11.10;99.90;;;;;;4935934;29;20034;-87
2022/03/30 13:19:11;;;;;;;23.20;13.68;;;11.10;99.90;;;;;;4948905;29;20510;-87
2022/03/30 13:21:46;;;;;;;32.00;13.63;;;11.20;99.90;;;;;;4936533;29;20042;-86
2022/03/30 13:24:15;;;;;;;26.73;13.40;;;11.10;99.90;;;;;;4953888;29;20491;-87
2022/03/30 13:26:42;;;;;;;26.58;14.32;;;11.20;99.90;;;;;;4955316;29;20058;-87
2022/03/30 13:29:08;;;;;;;25.75;14.13;;;11.20;99.90;;;;;;4955206;29;20026;-87
2022/03/30 13:31:43;;;;;;;25.33;14.13;;;11.20;99.90;;;;;;4955236;29;20016;-87
2022/03/30 13:34:10;;;;;;;25.33;11.32;;;11.20;99.90;;;;;;4955856;29;20067;-86